createdAt,value
2023-01-29T00:03:47.140Z,-8.38
2023-01-29T00:08:50.389Z,-8.36
2023-01-29T00:13:53.783Z,-8.41
2023-01-29T00:18:56.639Z,-8.37
2023-01-29T00:24:00.178Z,-8.40
2023-01-29T00:29:03.086Z,-8.48
2023-01-29T00:34:06.114Z,-8.41
2023-01-29T00:39:11.206Z,-8.50
2023-01-29T00:44:32.226Z,-8.43
2023-01-29T00:49:35.441Z,-8.44
2023-01-29T00:54:38.256Z,-8.43
2023-01-29T00:59:41.132Z,-8.46
2023-01-29T01:04:43.806Z,-8.50
2023-01-29T01:10:04.892Z,-8.44
2023-01-29T01:15:07.929Z,-8.45
2023-01-29T01:20:12.981Z,-8.47
2023-01-29T01:25:16.534Z,-8.70
2023-01-29T01:30:19.352Z,-8.51
2023-01-29T01:35:22.250Z,-8.54
2023-01-29T01:40:26.315Z,-8.48
2023-01-29T01:45:34.991Z,-8.48
2023-01-29T01:50:39.176Z,-8.53
2023-01-29T01:55:53.285Z,-8.75
2023-01-29T02:00:56.745Z,-8.54
2023-01-29T02:06:18.939Z,-8.59
2023-01-29T02:11:21.763Z,-8.55
2023-01-29T02:16:24.878Z,-8.57
2023-01-29T02:22:06.193Z,-8.61
2023-01-29T02:27:31.756Z,-8.53
2023-01-29T02:33:01.131Z,-8.48
2023-01-29T02:38:22.100Z,-8.45
2023-01-29T02:43:56.396Z,-8.60
2023-01-29T02:49:13.645Z,-8.46
2023-01-29T02:54:24.466Z,-8.41
2023-01-29T02:59:54.458Z,-8.43
2023-01-29T03:05:01.593Z,-8.47
2023-01-29T03:10:13.380Z,-8.41
2023-01-29T03:15:26.968Z,-8.45
2023-01-29T03:20:53.817Z,-8.28
2023-01-29T03:26:18.482Z,-8.26
2023-01-29T03:31:40.086Z,-8.21
2023-01-29T03:36:50.437Z,-8.19
2023-01-29T03:42:01.557Z,-8.09
2023-01-29T03:47:27.968Z,-8.07
2023-01-29T03:52:50.202Z,-8.09
2023-01-29T03:58:05.219Z,-8.07
2023-01-29T04:03:25.478Z,-8.11
2023-01-29T04:08:31.730Z,-8.09
2023-01-29T04:13:36.900Z,-8.02
2023-01-29T04:18:39.911Z,-8.05
2023-01-29T04:23:44.612Z,-7.79
2023-01-29T04:29:30.546Z,-7.73
2023-01-29T04:35:06.732Z,-7.70
2023-01-29T04:40:24.403Z,-7.68
2023-01-29T04:45:27.099Z,-7.68
2023-01-29T04:50:36.918Z,-7.68
2023-01-29T04:55:41.406Z,-7.68
2023-01-29T05:00:44.551Z,-7.64
2023-01-29T05:05:49.100Z,-7.59
2023-01-29T05:10:53.370Z,-7.57
2023-01-29T05:16:42.250Z,-7.53
2023-01-29T05:21:49.861Z,-7.45
2023-01-29T05:27:12.447Z,-7.46
2023-01-29T05:32:16.377Z,-7.43
2023-01-29T05:37:19.132Z,-7.60
2023-01-29T05:42:22.099Z,-7.54
2023-01-29T05:47:24.780Z,-7.54
2023-01-29T05:52:27.801Z,-7.56
2023-01-29T05:57:30.558Z,-7.47
2023-01-29T06:02:33.458Z,-7.37
2023-01-29T06:07:36.551Z,-7.29
2023-01-29T06:12:39.733Z,-7.30
2023-01-29T06:17:43.242Z,-7.32
2023-01-29T06:22:45.918Z,-7.33
2023-01-29T06:27:51.426Z,-7.37
2023-01-29T06:32:59.097Z,-7.41
2023-01-29T06:38:01.999Z,-7.37
2023-01-29T06:43:04.761Z,-7.40
2023-01-29T06:48:07.454Z,-7.52
2023-01-29T06:53:10.184Z,-7.74
2023-01-29T06:58:13.251Z,-7.72
2023-01-29T07:03:15.972Z,-7.83
2023-01-29T07:08:19.004Z,-7.87
2023-01-29T07:13:21.751Z,-7.80
2023-01-29T07:18:24.433Z,-7.78
2023-01-29T07:23:27.170Z,-7.74
2023-01-29T07:28:30.216Z,-7.74
2023-01-29T07:33:33.210Z,-7.63
2023-01-29T07:38:35.931Z,-7.64
2023-01-29T07:43:38.907Z,-7.68
2023-01-29T07:48:41.609Z,-7.89
2023-01-29T07:53:45.416Z,-7.78
2023-01-29T07:58:48.088Z,-7.79
2023-01-29T08:03:51.524Z,-7.79
2023-01-29T08:08:56.109Z,-7.74
2023-01-29T08:13:58.624Z,-7.70
2023-01-29T08:19:02.523Z,-7.71
2023-01-29T08:24:05.520Z,-7.61
2023-01-29T08:29:08.329Z,-7.69
2023-01-29T08:34:11.047Z,-7.69
2023-01-29T08:39:13.886Z,-7.80
2023-01-29T08:44:16.651Z,-7.89
2023-01-29T08:49:19.273Z,-7.94
2023-01-29T08:54:21.954Z,-8.12
2023-01-29T08:59:24.715Z,-8.00
2023-01-29T09:04:27.428Z,-8.02
2023-01-29T09:09:30.199Z,-8.16
2023-01-29T09:14:33.284Z,-8.10
2023-01-29T09:19:36.174Z,-8.11
2023-01-29T09:24:38.996Z,-8.06
2023-01-29T09:29:41.689Z,-8.08
2023-01-29T09:34:44.478Z,-8.09
2023-01-29T09:39:47.364Z,-8.08
2023-01-29T09:45:25.134Z,-8.35
2023-01-29T09:50:35.723Z,-8.24
2023-01-29T09:55:43.203Z,-8.34
2023-01-29T10:01:10.620Z,-8.34
2023-01-29T10:06:16.083Z,-8.42
2023-01-29T10:11:47.916Z,-8.44
2023-01-29T10:17:29.143Z,-8.59
2023-01-29T10:22:53.044Z,-8.65
2023-01-29T10:27:58.111Z,-8.68
2023-01-29T10:33:04.563Z,-8.78
2023-01-29T10:38:35.212Z,-8.83
2023-01-29T10:43:59.863Z,-8.90
2023-01-29T10:49:21.330Z,-8.95
2023-01-29T10:54:46.093Z,-9.00
2023-01-29T11:00:14.017Z,-9.08
2023-01-29T11:05:27.842Z,-9.13
2023-01-29T11:10:33.083Z,-9.11
2023-01-29T11:15:35.725Z,-9.16
2023-01-29T11:20:38.733Z,-9.16
2023-01-29T11:25:53.025Z,-9.35
2023-01-29T11:30:56.058Z,-9.19
2023-01-29T11:35:59.436Z,-9.19
2023-01-29T11:41:18.898Z,-9.24
2023-01-29T11:46:21.657Z,-9.29
2023-01-29T11:51:27.266Z,-9.29
2023-01-29T11:56:42.457Z,-9.32
2023-01-29T12:01:45.237Z,-9.39
2023-01-29T12:06:52.362Z,-9.45
2023-01-29T12:11:55.109Z,-9.60
2023-01-29T12:17:08.275Z,-9.52
2023-01-29T12:22:18.215Z,-9.53
2023-01-29T12:27:56.761Z,-9.52
2023-01-29T12:33:28.503Z,-9.57
2023-01-29T12:38:31.272Z,-9.59
2023-01-29T12:43:47.685Z,-9.68
2023-01-29T12:48:51.316Z,-9.62
2023-01-29T12:54:09.862Z,-9.70
2023-01-29T12:59:32.471Z,-9.63
2023-01-29T13:04:45.956Z,-9.63
2023-01-29T13:09:51.688Z,-9.77
2023-01-29T13:14:58.344Z,-9.72
2023-01-29T13:20:18.955Z,-9.70
2023-01-29T13:25:22.046Z,-9.85
2023-01-29T13:30:28.821Z,-9.85
2023-01-29T13:35:31.912Z,-9.85
2023-01-29T13:40:38.587Z,-9.82
2023-01-29T13:45:45.035Z,-9.97
2023-01-29T13:50:48.370Z,-9.79
2023-01-29T13:55:51.316Z,-9.77
2023-01-29T14:00:54.413Z,-9.81
2023-01-29T14:06:01.480Z,-9.82
2023-01-29T14:11:16.235Z,-9.86
2023-01-29T14:16:18.962Z,-9.84
2023-01-29T14:21:28.725Z,-9.81
2023-01-29T14:26:31.523Z,-9.88
2023-01-29T14:31:42.026Z,-9.87
2023-01-29T14:36:46.145Z,-10.16
2023-01-29T14:41:50.545Z,-9.99
2023-01-29T14:46:53.341Z,-10.02
2023-01-29T14:51:57.334Z,-10.08
2023-01-29T14:57:03.487Z,-10.08
2023-01-29T15:02:18.102Z,-10.14
2023-01-29T15:07:44.941Z,-10.16
2023-01-29T15:13:09.054Z,-10.23
2023-01-29T15:18:27.764Z,-10.28
2023-01-29T15:23:31.395Z,-10.24
2023-01-29T15:28:35.682Z,-10.36
2023-01-29T15:33:41.670Z,-10.35
2023-01-29T15:38:44.404Z,-10.34
2023-01-29T15:43:50.496Z,-10.34
2023-01-29T15:48:55.322Z,-10.34
2023-01-29T15:54:06.428Z,-10.36
2023-01-29T15:59:16.868Z,-10.38
2023-01-29T16:04:31.417Z,-10.31
2023-01-29T16:09:34.218Z,-10.47
2023-01-29T16:14:37.046Z,-10.36
2023-01-29T16:19:39.713Z,-10.47
2023-01-29T16:24:42.694Z,-10.41
2023-01-29T16:29:45.445Z,-10.32
2023-01-29T16:34:49.544Z,-10.33
2023-01-29T16:39:55.333Z,-10.29
2023-01-29T16:44:59.542Z,-10.24
2023-01-29T16:50:18.847Z,-10.23
2023-01-29T16:55:23.378Z,-10.22
2023-01-29T17:00:28.407Z,-10.49
2023-01-29T17:05:32.538Z,-10.24
2023-01-29T17:10:36.320Z,-10.25
2023-01-29T17:15:43.459Z,-10.19
2023-01-29T17:20:46.398Z,-10.22
2023-01-29T17:25:49.556Z,-10.20
2023-01-29T17:31:05.259Z,-10.16
2023-01-29T17:36:13.704Z,-10.12
2023-01-29T17:41:23.477Z,-10.11
2023-01-29T17:46:26.199Z,-10.25
2023-01-29T17:51:28.908Z,-10.02
2023-01-29T17:56:31.752Z,-10.16
2023-01-29T18:01:34.629Z,-9.99
2023-01-29T18:06:38.123Z,-10.03
2023-01-29T18:11:41.836Z,-10.06
2023-01-29T18:16:45.298Z,-10.08
2023-01-29T18:21:48.596Z,-10.05
2023-01-29T18:26:51.609Z,-10.08
2023-01-29T18:31:54.277Z,-10.10
2023-01-29T18:36:57.144Z,-9.99
2023-01-29T18:42:00.012Z,-9.99
2023-01-29T18:47:02.707Z,-9.95
2023-01-29T18:52:06.529Z,-9.95
2023-01-29T18:57:14.308Z,-9.83
2023-01-29T19:02:19.555Z,-9.77
2023-01-29T19:07:22.293Z,-9.76
2023-01-29T19:12:25.053Z,-9.89
2023-01-29T19:17:27.958Z,-9.72
2023-01-29T19:22:31.971Z,-9.69
2023-01-29T19:27:34.771Z,-9.63
2023-01-29T19:32:37.550Z,-9.58
2023-01-29T19:37:40.558Z,-9.65
2023-01-29T19:42:43.293Z,-9.60
2023-01-29T19:47:46.325Z,-9.64
2023-01-29T19:52:51.511Z,-9.60
2023-01-29T19:57:55.115Z,-9.52
2023-01-29T20:02:57.840Z,-9.47
2023-01-29T20:08:00.560Z,-9.45
2023-01-29T20:13:03.253Z,-9.39
2023-01-29T20:18:12.127Z,-9.27
2023-01-29T20:23:22.298Z,-9.18
2023-01-29T20:28:31.004Z,-9.16
2023-01-29T20:33:35.076Z,-9.09
2023-01-29T20:38:37.966Z,-9.00
2023-01-29T20:43:41.237Z,-8.97
2023-01-29T20:48:44.139Z,-8.92
2023-01-29T20:53:48.429Z,-8.88
2023-01-29T20:58:51.429Z,-8.83
2023-01-29T21:03:54.136Z,-8.84
2023-01-29T21:08:56.816Z,-8.80
2023-01-29T21:13:59.896Z,-8.71
2023-01-29T21:19:03.687Z,-8.76
2023-01-29T21:24:06.852Z,-8.60
2023-01-29T21:29:11.546Z,-8.57
2023-01-29T21:34:14.304Z,-8.56
2023-01-29T21:39:17.047Z,-8.53
2023-01-29T21:44:19.761Z,-8.55
2023-01-29T21:49:23.058Z,-8.47
2023-01-29T21:54:31.277Z,-8.46
2023-01-29T21:59:34.109Z,-8.42
2023-01-29T22:04:36.737Z,-8.44
2023-01-29T22:09:39.672Z,-8.36
2023-01-29T22:14:42.460Z,-8.34
2023-01-29T22:19:45.183Z,-8.26
2023-01-29T22:24:47.988Z,-8.26
2023-01-29T22:29:50.739Z,-8.42
2023-01-29T22:34:53.452Z,-8.23
2023-01-29T22:39:56.132Z,-8.16
2023-01-29T22:44:58.981Z,-8.11
2023-01-29T22:50:01.717Z,-8.03
2023-01-29T22:55:13.226Z,-8.02
2023-01-29T23:00:16.755Z,-7.97
2023-01-29T23:05:19.746Z,-7.96
2023-01-29T23:10:22.450Z,-7.93
2023-01-29T23:15:25.263Z,-7.87
2023-01-29T23:20:27.979Z,-7.86
2023-01-29T23:25:49.047Z,-7.81
2023-01-29T23:30:52.449Z,-7.87
2023-01-29T23:35:55.468Z,-7.65
2023-01-29T23:40:58.589Z,-7.62
2023-01-29T23:46:01.570Z,-7.56
2023-01-29T23:51:04.387Z,-7.63
2023-01-29T23:56:07.843Z,-7.72
